sensor_id;sensor_type;location;lat;lon;timestamp;P1;durP1;ratioP1;P2;durP2;ratioP2
51949;SDS011;37974;53.218;6.640;2022-11-23T00:01:37;30.05;;;20.77;;
51949;SDS011;37974;53.218;6.640;2022-11-23T00:04:05;38.13;;;21.27;;
51949;SDS011;37974;53.218;6.640;2022-11-23T00:06:32;36.60;;;21.80;;
51949;SDS011;37974;53.218;6.640;2022-11-23T00:08:58;32.60;;;21.27;;
51949;SDS011;37974;53.218;6.640;2022-11-23T00:11:25;35.70;;;21.67;;
51949;SDS011;37974;53.218;6.640;2022-11-23T00:13:52;36.67;;;23.17;;
51949;SDS011;37974;53.218;6.640;2022-11-23T00:16:19;36.88;;;23.92;;
51949;SDS011;37974;53.218;6.640;2022-11-23T00:18:46;35.63;;;22.10;;
51949;SDS011;37974;53.218;6.640;2022-11-23T00:21:13;36.30;;;23.65;;
51949;SDS011;37974;53.218;6.640;2022-11-23T00:23:41;39.75;;;24.05;;
51949;SDS011;37974;53.218;6.640;2022-11-23T00:26:07;34.97;;;22.92;;
51949;SDS011;37974;53.218;6.640;2022-11-23T00:28:33;38.42;;;23.67;;
51949;SDS011;37974;53.218;6.640;2022-11-23T00:31:03;37.90;;;23.48;;
51949;SDS011;37974;53.218;6.640;2022-11-23T00:33:29;35.80;;;23.85;;
51949;SDS011;37974;53.218;6.640;2022-11-23T00:36:02;36.83;;;23.50;;
51949;SDS011;37974;53.218;6.640;2022-11-23T00:38:30;37.58;;;23.77;;
51949;SDS011;37974;53.218;6.640;2022-11-23T00:41:00;43.03;;;24.40;;
51949;SDS011;37974;53.218;6.640;2022-11-23T00:43:28;34.58;;;23.40;;
51949;SDS011;37974;53.218;6.640;2022-11-23T00:48:28;36.90;;;23.42;;
51949;SDS011;37974;53.218;6.640;2022-11-23T00:50:54;40.22;;;24.30;;
51949;SDS011;37974;53.218;6.640;2022-11-23T00:53:20;34.47;;;23.67;;
51949;SDS011;37974;53.218;6.640;2022-11-23T00:55:50;40.35;;;24.65;;
51949;SDS011;37974;53.218;6.640;2022-11-23T00:58:17;40.55;;;25.67;;
51949;SDS011;37974;53.218;6.640;2022-11-23T01:00:43;42.28;;;25.23;;
51949;SDS011;37974;53.218;6.640;2022-11-23T01:03:08;43.65;;;26.10;;
51949;SDS011;37974;53.218;6.640;2022-11-23T01:05:35;39.03;;;24.48;;
51949;SDS011;37974;53.218;6.640;2022-11-23T01:08:02;51.75;;;26.98;;
51949;SDS011;37974;53.218;6.640;2022-11-23T01:10:28;41.90;;;25.73;;
51949;SDS011;37974;53.218;6.640;2022-11-23T01:12:54;37.25;;;25.83;;
51949;SDS011;37974;53.218;6.640;2022-11-23T01:15:20;39.78;;;25.73;;
51949;SDS011;37974;53.218;6.640;2022-11-23T01:17:46;41.75;;;24.77;;
51949;SDS011;37974;53.218;6.640;2022-11-23T01:20:11;41.97;;;24.20;;
51949;SDS011;37974;53.218;6.640;2022-11-23T01:22:37;40.65;;;25.05;;
51949;SDS011;37974;53.218;6.640;2022-11-23T01:25:03;41.03;;;25.25;;
51949;SDS011;37974;53.218;6.640;2022-11-23T01:27:29;43.72;;;25.10;;
51949;SDS011;37974;53.218;6.640;2022-11-23T01:29:54;39.17;;;24.65;;
51949;SDS011;37974;53.218;6.640;2022-11-23T01:32:20;43.50;;;24.10;;
51949;SDS011;37974;53.218;6.640;2022-11-23T01:34:46;42.00;;;25.42;;
51949;SDS011;37974;53.218;6.640;2022-11-23T01:37:12;43.70;;;25.48;;
51949;SDS011;37974;53.218;6.640;2022-11-23T01:39:37;43.55;;;25.40;;
51949;SDS011;37974;53.218;6.640;2022-11-23T01:42:03;47.28;;;24.52;;
51949;SDS011;37974;53.218;6.640;2022-11-23T01:44:32;37.80;;;24.58;;
51949;SDS011;37974;53.218;6.640;2022-11-23T01:47:01;44.40;;;26.17;;
51949;SDS011;37974;53.218;6.640;2022-11-23T01:49:32;43.38;;;24.17;;
51949;SDS011;37974;53.218;6.640;2022-11-23T01:52:03;41.40;;;24.83;;
51949;SDS011;37974;53.218;6.640;2022-11-23T01:54:35;40.92;;;24.20;;
51949;SDS011;37974;53.218;6.640;2022-11-23T01:57:05;40.17;;;23.30;;
51949;SDS011;37974;53.218;6.640;2022-11-23T01:59:36;43.75;;;24.17;;
51949;SDS011;37974;53.218;6.640;2022-11-23T02:02:02;39.92;;;23.35;;
51949;SDS011;37974;53.218;6.640;2022-11-23T02:04:30;39.20;;;23.05;;
51949;SDS011;37974;53.218;6.640;2022-11-23T02:06:58;38.53;;;22.70;;
51949;SDS011;37974;53.218;6.640;2022-11-23T02:09:25;40.38;;;22.17;;
51949;SDS011;37974;53.218;6.640;2022-11-23T02:11:54;40.90;;;22.30;;
51949;SDS011;37974;53.218;6.640;2022-11-23T02:14:20;39.25;;;21.63;;
51949;SDS011;37974;53.218;6.640;2022-11-23T02:16:46;39.78;;;21.35;;
51949;SDS011;37974;53.218;6.640;2022-11-23T02:19:16;39.17;;;21.77;;
51949;SDS011;37974;53.218;6.640;2022-11-23T02:21:53;34.53;;;22.17;;
51949;SDS011;37974;53.218;6.640;2022-11-23T02:24:22;38.17;;;21.90;;
51949;SDS011;37974;53.218;6.640;2022-11-23T02:26:55;42.65;;;21.73;;
51949;SDS011;37974;53.218;6.640;2022-11-23T02:29:23;33.22;;;20.90;;
51949;SDS011;37974;53.218;6.640;2022-11-23T02:31:50;42.38;;;22.45;;
51949;SDS011;37974;53.218;6.640;2022-11-23T02:34:17;40.28;;;21.67;;
51949;SDS011;37974;53.218;6.640;2022-11-23T02:36:48;36.53;;;21.98;;
51949;SDS011;37974;53.218;6.640;2022-11-23T02:41:46;37.50;;;21.42;;
51949;SDS011;37974;53.218;6.640;2022-11-23T02:44:17;46.50;;;22.33;;
51949;SDS011;37974;53.218;6.640;2022-11-23T02:47:03;41.30;;;21.48;;
51949;SDS011;37974;53.218;6.640;2022-11-23T02:49:30;35.30;;;20.08;;
51949;SDS011;37974;53.218;6.640;2022-11-23T02:51:56;39.42;;;20.70;;
51949;SDS011;37974;53.218;6.640;2022-11-23T02:54:22;34.75;;;20.17;;
51949;SDS011;37974;53.218;6.640;2022-11-23T02:56:47;37.75;;;21.67;;
51949;SDS011;37974;53.218;6.640;2022-11-23T02:59:13;36.83;;;20.52;;
51949;SDS011;37974;53.218;6.640;2022-11-23T03:01:39;37.97;;;19.48;;
51949;SDS011;37974;53.218;6.640;2022-11-23T03:04:05;39.33;;;20.08;;
51949;SDS011;37974;53.218;6.640;2022-11-23T03:06:31;35.17;;;20.55;;
51949;SDS011;37974;53.218;6.640;2022-11-23T03:08:57;40.08;;;20.83;;
51949;SDS011;37974;53.218;6.640;2022-11-23T03:11:41;34.00;;;20.50;;
51949;SDS011;37974;53.218;6.640;2022-11-23T03:14:07;36.25;;;19.92;;
51949;SDS011;37974;53.218;6.640;2022-11-23T03:16:33;30.25;;;19.20;;
51949;SDS011;37974;53.218;6.640;2022-11-23T03:18:58;30.92;;;18.52;;
51949;SDS011;37974;53.218;6.640;2022-11-23T03:21:27;38.15;;;20.25;;
51949;SDS011;37974;53.218;6.640;2022-11-23T03:23:53;28.35;;;18.55;;
51949;SDS011;37974;53.218;6.640;2022-11-23T03:26:20;33.15;;;18.83;;
51949;SDS011;37974;53.218;6.640;2022-11-23T03:28:45;32.17;;;18.88;;
51949;SDS011;37974;53.218;6.640;2022-11-23T03:31:11;35.22;;;19.05;;
51949;SDS011;37974;53.218;6.640;2022-11-23T03:33:36;30.80;;;18.25;;
51949;SDS011;37974;53.218;6.640;2022-11-23T03:36:02;32.95;;;18.25;;
51949;SDS011;37974;53.218;6.640;2022-11-23T03:38:28;33.00;;;18.75;;
51949;SDS011;37974;53.218;6.640;2022-11-23T03:40:54;32.97;;;17.42;;
51949;SDS011;37974;53.218;6.640;2022-11-23T03:43:20;27.92;;;16.95;;
51949;SDS011;37974;53.218;6.640;2022-11-23T03:45:46;35.55;;;18.90;;
51949;SDS011;37974;53.218;6.640;2022-11-23T03:48:11;40.72;;;18.25;;
51949;SDS011;37974;53.218;6.640;2022-11-23T03:50:37;31.10;;;17.63;;
51949;SDS011;37974;53.218;6.640;2022-11-23T03:53:03;31.30;;;18.45;;
51949;SDS011;37974;53.218;6.640;2022-11-23T03:55:30;33.85;;;18.25;;
51949;SDS011;37974;53.218;6.640;2022-11-23T03:57:56;35.25;;;18.48;;
51949;SDS011;37974;53.218;6.640;2022-11-23T04:00:24;29.67;;;18.70;;
51949;SDS011;37974;53.218;6.640;2022-11-23T04:02:50;35.92;;;18.05;;
51949;SDS011;37974;53.218;6.640;2022-11-23T04:05:16;31.85;;;17.88;;
51949;SDS011;37974;53.218;6.640;2022-11-23T04:07:42;38.42;;;18.73;;
51949;SDS011;37974;53.218;6.640;2022-11-23T04:10:10;34.55;;;17.92;;
51949;SDS011;37974;53.218;6.640;2022-11-23T04:12:35;35.30;;;18.80;;
51949;SDS011;37974;53.218;6.640;2022-11-23T04:15:01;43.00;;;19.02;;
51949;SDS011;37974;53.218;6.640;2022-11-23T04:17:27;37.17;;;18.80;;
51949;SDS011;37974;53.218;6.640;2022-11-23T04:19:53;37.88;;;19.27;;
51949;SDS011;37974;53.218;6.640;2022-11-23T04:22:19;34.92;;;18.92;;
51949;SDS011;37974;53.218;6.640;2022-11-23T04:24:44;38.38;;;19.30;;
51949;SDS011;37974;53.218;6.640;2022-11-23T04:27:10;37.60;;;19.70;;
51949;SDS011;37974;53.218;6.640;2022-11-23T04:29:38;40.00;;;19.13;;
51949;SDS011;37974;53.218;6.640;2022-11-23T04:32:04;40.20;;;20.50;;
51949;SDS011;37974;53.218;6.640;2022-11-23T04:34:29;41.90;;;20.63;;
51949;SDS011;37974;53.218;6.640;2022-11-23T04:36:55;44.05;;;21.30;;
51949;SDS011;37974;53.218;6.640;2022-11-23T04:39:21;42.83;;;21.48;;
51949;SDS011;37974;53.218;6.640;2022-11-23T04:41:46;42.08;;;20.98;;
51949;SDS011;37974;53.218;6.640;2022-11-23T04:44:12;44.20;;;22.10;;
51949;SDS011;37974;53.218;6.640;2022-11-23T04:46:38;53.85;;;20.88;;
51949;SDS011;37974;53.218;6.640;2022-11-23T04:49:03;45.47;;;21.05;;
51949;SDS011;37974;53.218;6.640;2022-11-23T04:51:29;51.75;;;23.33;;
51949;SDS011;37974;53.218;6.640;2022-11-23T04:53:55;48.45;;;22.25;;
51949;SDS011;37974;53.218;6.640;2022-11-23T04:56:20;44.22;;;22.33;;
51949;SDS011;37974;53.218;6.640;2022-11-23T04:58:46;42.67;;;22.00;;
51949;SDS011;37974;53.218;6.640;2022-11-23T05:01:12;49.67;;;22.70;;
51949;SDS011;37974;53.218;6.640;2022-11-23T05:03:37;51.58;;;22.13;;
51949;SDS011;37974;53.218;6.640;2022-11-23T05:06:03;47.75;;;23.25;;
51949;SDS011;37974;53.218;6.640;2022-11-23T05:08:31;47.88;;;22.90;;
51949;SDS011;37974;53.218;6.640;2022-11-23T05:10:57;48.30;;;23.30;;
51949;SDS011;37974;53.218;6.640;2022-11-23T05:13:22;52.25;;;24.58;;
51949;SDS011;37974;53.218;6.640;2022-11-23T05:15:48;50.15;;;23.75;;
51949;SDS011;37974;53.218;6.640;2022-11-23T05:18:14;54.15;;;24.58;;
51949;SDS011;37974;53.218;6.640;2022-11-23T05:20:39;45.45;;;25.17;;
51949;SDS011;37974;53.218;6.640;2022-11-23T05:23:05;49.85;;;24.88;;
51949;SDS011;37974;53.218;6.640;2022-11-23T05:25:32;60.05;;;26.10;;
51949;SDS011;37974;53.218;6.640;2022-11-23T05:27:58;61.40;;;26.85;;
51949;SDS011;37974;53.218;6.640;2022-11-23T05:30:24;57.92;;;25.52;;
51949;SDS011;37974;53.218;6.640;2022-11-23T05:32:50;48.88;;;24.65;;
51949;SDS011;37974;53.218;6.640;2022-11-23T05:35:15;59.28;;;26.50;;
51949;SDS011;37974;53.218;6.640;2022-11-23T05:37:41;59.95;;;26.23;;
51949;SDS011;37974;53.218;6.640;2022-11-23T05:40:07;47.22;;;25.42;;
51949;SDS011;37974;53.218;6.640;2022-11-23T05:42:33;48.72;;;24.27;;
51949;SDS011;37974;53.218;6.640;2022-11-23T05:44:59;49.78;;;24.63;;
51949;SDS011;37974;53.218;6.640;2022-11-23T05:47:25;52.67;;;25.08;;
51949;SDS011;37974;53.218;6.640;2022-11-23T05:49:50;53.53;;;25.98;;
51949;SDS011;37974;53.218;6.640;2022-11-23T05:52:16;50.78;;;26.08;;
51949;SDS011;37974;53.218;6.640;2022-11-23T05:54:42;49.80;;;25.85;;
51949;SDS011;37974;53.218;6.640;2022-11-23T05:57:08;52.88;;;26.70;;
51949;SDS011;37974;53.218;6.640;2022-11-23T05:59:34;52.22;;;25.95;;
51949;SDS011;37974;53.218;6.640;2022-11-23T06:02:00;53.35;;;26.50;;
51949;SDS011;37974;53.218;6.640;2022-11-23T06:04:25;49.05;;;24.98;;
51949;SDS011;37974;53.218;6.640;2022-11-23T06:06:51;48.63;;;26.05;;
51949;SDS011;37974;53.218;6.640;2022-11-23T06:09:24;52.00;;;25.85;;
51949;SDS011;37974;53.218;6.640;2022-11-23T06:11:51;46.97;;;26.77;;
51949;SDS011;37974;53.218;6.640;2022-11-23T06:14:17;52.25;;;24.85;;
51949;SDS011;37974;53.218;6.640;2022-11-23T06:16:45;55.75;;;26.25;;
51949;SDS011;37974;53.218;6.640;2022-11-23T06:19:11;47.03;;;24.20;;
51949;SDS011;37974;53.218;6.640;2022-11-23T06:21:37;44.88;;;24.70;;
51949;SDS011;37974;53.218;6.640;2022-11-23T06:24:02;51.05;;;24.75;;
51949;SDS011;37974;53.218;6.640;2022-11-23T06:26:28;43.17;;;22.60;;
51949;SDS011;37974;53.218;6.640;2022-11-23T06:28:54;45.83;;;25.05;;
51949;SDS011;37974;53.218;6.640;2022-11-23T06:31:20;36.95;;;21.98;;
51949;SDS011;37974;53.218;6.640;2022-11-23T06:33:45;39.42;;;23.02;;
51949;SDS011;37974;53.218;6.640;2022-11-23T06:36:11;39.83;;;22.33;;
51949;SDS011;37974;53.218;6.640;2022-11-23T06:38:37;43.92;;;22.38;;
51949;SDS011;37974;53.218;6.640;2022-11-23T06:41:03;42.20;;;19.92;;
51949;SDS011;37974;53.218;6.640;2022-11-23T06:43:29;46.08;;;20.92;;
51949;SDS011;37974;53.218;6.640;2022-11-23T06:45:55;38.08;;;19.83;;
51949;SDS011;37974;53.218;6.640;2022-11-23T06:48:21;41.25;;;19.77;;
51949;SDS011;37974;53.218;6.640;2022-11-23T06:50:47;32.45;;;19.42;;
51949;SDS011;37974;53.218;6.640;2022-11-23T06:53:13;41.58;;;19.48;;
51949;SDS011;37974;53.218;6.640;2022-11-23T06:55:38;33.92;;;19.13;;
51949;SDS011;37974;53.218;6.640;2022-11-23T06:58:05;33.92;;;18.95;;
51949;SDS011;37974;53.218;6.640;2022-11-23T07:00:31;39.85;;;19.05;;
51949;SDS011;37974;53.218;6.640;2022-11-23T07:02:57;30.55;;;18.38;;
51949;SDS011;37974;53.218;6.640;2022-11-23T07:05:24;41.03;;;18.90;;
51949;SDS011;37974;53.218;6.640;2022-11-23T07:07:51;29.45;;;16.55;;
51949;SDS011;37974;53.218;6.640;2022-11-23T07:10:17;32.75;;;16.88;;
51949;SDS011;37974;53.218;6.640;2022-11-23T07:12:43;35.15;;;17.23;;
51949;SDS011;37974;53.218;6.640;2022-11-23T07:15:08;30.45;;;15.02;;
51949;SDS011;37974;53.218;6.640;2022-11-23T07:17:38;29.70;;;15.73;;
51949;SDS011;37974;53.218;6.640;2022-11-23T07:20:06;32.03;;;15.35;;
51949;SDS011;37974;53.218;6.640;2022-11-23T07:22:34;27.20;;;15.05;;
51949;SDS011;37974;53.218;6.640;2022-11-23T07:25:00;25.63;;;14.27;;
51949;SDS011;37974;53.218;6.640;2022-11-23T07:27:26;24.88;;;13.98;;
51949;SDS011;37974;53.218;6.640;2022-11-23T07:29:52;29.70;;;14.60;;
51949;SDS011;37974;53.218;6.640;2022-11-23T07:32:17;27.70;;;13.65;;
51949;SDS011;37974;53.218;6.640;2022-11-23T07:34:43;26.52;;;13.25;;
51949;SDS011;37974;53.218;6.640;2022-11-23T07:37:09;29.35;;;13.00;;
51949;SDS011;37974;53.218;6.640;2022-11-23T07:39:34;24.38;;;12.35;;
51949;SDS011;37974;53.218;6.640;2022-11-23T07:42:00;29.20;;;12.05;;
51949;SDS011;37974;53.218;6.640;2022-11-23T07:44:26;25.27;;;12.80;;
51949;SDS011;37974;53.218;6.640;2022-11-23T07:46:52;25.90;;;11.27;;
51949;SDS011;37974;53.218;6.640;2022-11-23T07:49:20;29.60;;;12.20;;
51949;SDS011;37974;53.218;6.640;2022-11-23T07:51:46;28.63;;;11.52;;
51949;SDS011;37974;53.218;6.640;2022-11-23T07:54:11;25.33;;;11.80;;
51949;SDS011;37974;53.218;6.640;2022-11-23T07:56:38;27.95;;;10.68;;
51949;SDS011;37974;53.218;6.640;2022-11-23T07:59:03;30.63;;;10.75;;
51949;SDS011;37974;53.218;6.640;2022-11-23T08:01:29;25.60;;;10.57;;
51949;SDS011;37974;53.218;6.640;2022-11-23T08:03:55;25.02;;;11.13;;
51949;SDS011;37974;53.218;6.640;2022-11-23T08:06:21;20.10;;;10.20;;
51949;SDS011;37974;53.218;6.640;2022-11-23T08:08:47;26.92;;;11.05;;
51949;SDS011;37974;53.218;6.640;2022-11-23T08:11:13;28.58;;;9.70;;
51949;SDS011;37974;53.218;6.640;2022-11-23T08:13:41;25.25;;;9.95;;
51949;SDS011;37974;53.218;6.640;2022-11-23T08:16:07;20.23;;;9.48;;
51949;SDS011;37974;53.218;6.640;2022-11-23T08:18:32;18.75;;;8.80;;
51949;SDS011;37974;53.218;6.640;2022-11-23T08:20:58;20.23;;;9.07;;
51949;SDS011;37974;53.218;6.640;2022-11-23T08:23:24;25.73;;;9.05;;
51949;SDS011;37974;53.218;6.640;2022-11-23T08:25:51;23.85;;;8.85;;
51949;SDS011;37974;53.218;6.640;2022-11-23T08:28:16;23.00;;;7.95;;
51949;SDS011;37974;53.218;6.640;2022-11-23T08:30:42;18.63;;;7.72;;
51949;SDS011;37974;53.218;6.640;2022-11-23T08:33:09;22.70;;;7.93;;
51949;SDS011;37974;53.218;6.640;2022-11-23T08:35:37;25.42;;;7.57;;
51949;SDS011;37974;53.218;6.640;2022-11-23T08:38:04;21.08;;;7.20;;
51949;SDS011;37974;53.218;6.640;2022-11-23T08:40:32;20.95;;;7.40;;
51949;SDS011;37974;53.218;6.640;2022-11-23T08:42:58;24.65;;;7.63;;
51949;SDS011;37974;53.218;6.640;2022-11-23T08:45:23;19.92;;;8.10;;
51949;SDS011;37974;53.218;6.640;2022-11-23T08:47:50;20.48;;;7.35;;
51949;SDS011;37974;53.218;6.640;2022-11-23T08:50:16;18.67;;;7.45;;
51949;SDS011;37974;53.218;6.640;2022-11-23T08:52:44;19.55;;;7.15;;
51949;SDS011;37974;53.218;6.640;2022-11-23T08:55:10;21.48;;;7.22;;
51949;SDS011;37974;53.218;6.640;2022-11-23T08:57:36;16.33;;;6.82;;
51949;SDS011;37974;53.218;6.640;2022-11-23T09:00:05;22.83;;;7.20;;
51949;SDS011;37974;53.218;6.640;2022-11-23T09:02:31;21.83;;;7.07;;
51949;SDS011;37974;53.218;6.640;2022-11-23T09:05:00;20.60;;;7.78;;
51949;SDS011;37974;53.218;6.640;2022-11-23T09:07:26;26.55;;;7.13;;
51949;SDS011;37974;53.218;6.640;2022-11-23T09:09:52;21.63;;;6.97;;
51949;SDS011;37974;53.218;6.640;2022-11-23T09:12:17;18.50;;;6.65;;
51949;SDS011;37974;53.218;6.640;2022-11-23T09:14:43;30.10;;;6.43;;
51949;SDS011;37974;53.218;6.640;2022-11-23T09:17:09;18.20;;;6.38;;
51949;SDS011;37974;53.218;6.640;2022-11-23T09:19:34;24.00;;;6.93;;
51949;SDS011;37974;53.218;6.640;2022-11-23T09:22:00;17.80;;;6.10;;
51949;SDS011;37974;53.218;6.640;2022-11-23T09:24:26;26.88;;;6.50;;
51949;SDS011;37974;53.218;6.640;2022-11-23T09:26:52;24.58;;;6.50;;
51949;SDS011;37974;53.218;6.640;2022-11-23T09:29:18;24.73;;;6.15;;
51949;SDS011;37974;53.218;6.640;2022-11-23T09:31:44;21.92;;;5.80;;
51949;SDS011;37974;53.218;6.640;2022-11-23T09:34:11;19.60;;;6.45;;
51949;SDS011;37974;53.218;6.640;2022-11-23T09:36:39;19.25;;;5.95;;
51949;SDS011;37974;53.218;6.640;2022-11-23T09:39:05;22.00;;;6.65;;
51949;SDS011;37974;53.218;6.640;2022-11-23T09:52:22;18.27;;;4.57;;
51949;SDS011;37974;53.218;6.640;2022-11-23T09:54:50;20.33;;;5.57;;
51949;SDS011;37974;53.218;6.640;2022-11-23T09:57:20;21.10;;;5.50;;
51949;SDS011;37974;53.218;6.640;2022-11-23T09:59:53;18.02;;;4.90;;
51949;SDS011;37974;53.218;6.640;2022-11-23T10:02:25;21.05;;;4.97;;
51949;SDS011;37974;53.218;6.640;2022-11-23T10:04:53;21.30;;;4.75;;
51949;SDS011;37974;53.218;6.640;2022-11-23T10:07:30;19.17;;;5.90;;
51949;SDS011;37974;53.218;6.640;2022-11-23T10:13:12;20.30;;;5.05;;
51949;SDS011;37974;53.218;6.640;2022-11-23T10:18:28;18.63;;;4.65;;
51949;SDS011;37974;53.218;6.640;2022-11-23T10:26:07;18.88;;;4.65;;
51949;SDS011;37974;53.218;6.640;2022-11-23T10:31:06;17.42;;;5.15;;
51949;SDS011;37974;53.218;6.640;2022-11-23T10:33:44;19.13;;;4.60;;
51949;SDS011;37974;53.218;6.640;2022-11-23T10:36:19;15.88;;;4.70;;
51949;SDS011;37974;53.218;6.640;2022-11-23T10:38:47;16.60;;;4.40;;
51949;SDS011;37974;53.218;6.640;2022-11-23T10:41:16;24.35;;;5.15;;
51949;SDS011;37974;53.218;6.640;2022-11-23T10:43:44;23.50;;;5.15;;
51949;SDS011;37974;53.218;6.640;2022-11-23T10:46:26;24.75;;;4.68;;
51949;SDS011;37974;53.218;6.640;2022-11-23T10:49:12;24.50;;;4.13;;
51949;SDS011;37974;53.218;6.640;2022-11-23T10:51:48;23.95;;;4.45;;
51949;SDS011;37974;53.218;6.640;2022-11-23T10:56:53;19.20;;;4.30;;
51949;SDS011;37974;53.218;6.640;2022-11-23T10:59:26;17.13;;;3.50;;
51949;SDS011;37974;53.218;6.640;2022-11-23T11:01:59;21.13;;;4.43;;
51949;SDS011;37974;53.218;6.640;2022-11-23T11:04:33;20.08;;;4.07;;
51949;SDS011;37974;53.218;6.640;2022-11-23T11:09:50;17.30;;;4.30;;
51949;SDS011;37974;53.218;6.640;2022-11-23T11:12:17;23.33;;;4.90;;
51949;SDS011;37974;53.218;6.640;2022-11-23T11:14:57;21.42;;;4.55;;
51949;SDS011;37974;53.218;6.640;2022-11-23T11:17:28;11.73;;;4.53;;
51949;SDS011;37974;53.218;6.640;2022-11-23T11:19:56;18.85;;;4.13;;
51949;SDS011;37974;53.218;6.640;2022-11-23T11:22:26;20.00;;;5.18;;
51949;SDS011;37974;53.218;6.640;2022-11-23T11:24:53;20.75;;;3.88;;
51949;SDS011;37974;53.218;6.640;2022-11-23T11:27:20;20.00;;;4.47;;
51949;SDS011;37974;53.218;6.640;2022-11-23T11:29:49;18.52;;;4.47;;
51949;SDS011;37974;53.218;6.640;2022-11-23T11:32:25;16.13;;;3.72;;
51949;SDS011;37974;53.218;6.640;2022-11-23T11:35:02;14.85;;;3.33;;
51949;SDS011;37974;53.218;6.640;2022-11-23T11:37:44;18.70;;;4.88;;
51949;SDS011;37974;53.218;6.640;2022-11-23T11:40:16;14.05;;;3.33;;
51949;SDS011;37974;53.218;6.640;2022-11-23T11:42:47;13.13;;;3.13;;
51949;SDS011;37974;53.218;6.640;2022-11-23T11:45:21;16.05;;;3.47;;
51949;SDS011;37974;53.218;6.640;2022-11-23T11:47:54;20.58;;;3.47;;
51949;SDS011;37974;53.218;6.640;2022-11-23T11:50:26;23.25;;;3.72;;
51949;SDS011;37974;53.218;6.640;2022-11-23T11:52:58;18.20;;;3.00;;
51949;SDS011;37974;53.218;6.640;2022-11-23T11:55:35;18.00;;;3.20;;
51949;SDS011;37974;53.218;6.640;2022-11-23T11:58:11;26.42;;;3.75;;
51949;SDS011;37974;53.218;6.640;2022-11-23T12:00:39;20.65;;;5.35;;
51949;SDS011;37974;53.218;6.640;2022-11-23T12:03:16;21.92;;;3.80;;
51949;SDS011;37974;53.218;6.640;2022-11-23T12:05:51;20.77;;;4.00;;
51949;SDS011;37974;53.218;6.640;2022-11-23T12:08:23;16.55;;;2.83;;
51949;SDS011;37974;53.218;6.640;2022-11-23T12:10:57;16.40;;;3.55;;
51949;SDS011;37974;53.218;6.640;2022-11-23T12:13:28;23.77;;;4.05;;
51949;SDS011;37974;53.218;6.640;2022-11-23T12:18:43;20.63;;;4.50;;
51949;SDS011;37974;53.218;6.640;2022-11-23T12:21:17;22.10;;;5.95;;
51949;SDS011;37974;53.218;6.640;2022-11-23T12:23:55;19.20;;;3.33;;
51949;SDS011;37974;53.218;6.640;2022-11-23T12:29:28;22.70;;;3.33;;
51949;SDS011;37974;53.218;6.640;2022-11-23T12:32:02;14.23;;;3.17;;
51949;SDS011;37974;53.218;6.640;2022-11-23T12:37:18;13.43;;;2.58;;
51949;SDS011;37974;53.218;6.640;2022-11-23T12:39:53;20.42;;;3.60;;
51949;SDS011;37974;53.218;6.640;2022-11-23T12:42:44;15.45;;;2.78;;
51949;SDS011;37974;53.218;6.640;2022-11-23T12:48:01;22.35;;;3.58;;
51949;SDS011;37974;53.218;6.640;2022-11-23T12:50:51;16.23;;;3.00;;
51949;SDS011;37974;53.218;6.640;2022-11-23T12:59:39;15.57;;;2.72;;
51949;SDS011;37974;53.218;6.640;2022-11-23T13:03:09;18.70;;;2.55;;
51949;SDS011;37974;53.218;6.640;2022-11-23T13:06:02;14.63;;;2.83;;
51949;SDS011;37974;53.218;6.640;2022-11-23T13:08:48;15.73;;;2.60;;
51949;SDS011;37974;53.218;6.640;2022-11-23T13:14:12;14.35;;;1.85;;
51949;SDS011;37974;53.218;6.640;2022-11-23T13:16:54;15.10;;;1.90;;
51949;SDS011;37974;53.218;6.640;2022-11-23T13:19:53;11.88;;;2.42;;
51949;SDS011;37974;53.218;6.640;2022-11-23T13:22:26;14.63;;;3.13;;
51949;SDS011;37974;53.218;6.640;2022-11-23T13:24:59;15.48;;;2.45;;
51949;SDS011;37974;53.218;6.640;2022-11-23T13:27:41;17.98;;;2.38;;
51949;SDS011;37974;53.218;6.640;2022-11-23T13:30:15;13.00;;;2.72;;
51949;SDS011;37974;53.218;6.640;2022-11-23T13:32:54;10.68;;;2.05;;
51949;SDS011;37974;53.218;6.640;2022-11-23T13:40:22;11.55;;;2.28;;
51949;SDS011;37974;53.218;6.640;2022-11-23T13:42:51;12.88;;;2.35;;
51949;SDS011;37974;53.218;6.640;2022-11-23T13:48:18;18.67;;;6.40;;
51949;SDS011;37974;53.218;6.640;2022-11-23T13:50:39;17.70;;;3.25;;
51949;SDS011;37974;53.218;6.640;2022-11-23T13:53:39;11.73;;;2.80;;
51949;SDS011;37974;53.218;6.640;2022-11-23T13:56:23;9.13;;;2.05;;
51949;SDS011;37974;53.218;6.640;2022-11-23T13:58:56;12.10;;;2.75;;
51949;SDS011;37974;53.218;6.640;2022-11-23T14:04:22;10.23;;;1.80;;
51949;SDS011;37974;53.218;6.640;2022-11-23T14:06:50;13.80;;;1.75;;
51949;SDS011;37974;53.218;6.640;2022-11-23T14:09:29;11.80;;;2.00;;
51949;SDS011;37974;53.218;6.640;2022-11-23T14:14:52;14.30;;;2.35;;
51949;SDS011;37974;53.218;6.640;2022-11-23T14:17:28;14.13;;;2.35;;
51949;SDS011;37974;53.218;6.640;2022-11-23T14:20:15;17.17;;;2.92;;
51949;SDS011;37974;53.218;6.640;2022-11-23T14:22:51;13.05;;;1.83;;
51949;SDS011;37974;53.218;6.640;2022-11-23T14:28:21;8.10;;;2.03;;
51949;SDS011;37974;53.218;6.640;2022-11-23T14:34:35;12.82;;;1.88;;
51949;SDS011;37974;53.218;6.640;2022-11-23T14:40:00;8.88;;;1.73;;
51949;SDS011;37974;53.218;6.640;2022-11-23T14:42:41;12.50;;;2.05;;
51949;SDS011;37974;53.218;6.640;2022-11-23T14:45:27;10.02;;;2.15;;
51949;SDS011;37974;53.218;6.640;2022-11-23T14:47:56;11.48;;;2.05;;
51949;SDS011;37974;53.218;6.640;2022-11-23T14:50:23;12.05;;;1.67;;
51949;SDS011;37974;53.218;6.640;2022-11-23T14:52:50;15.32;;;2.55;;
51949;SDS011;37974;53.218;6.640;2022-11-23T14:55:20;17.63;;;2.53;;
51949;SDS011;37974;53.218;6.640;2022-11-23T14:57:49;14.05;;;2.20;;
51949;SDS011;37974;53.218;6.640;2022-11-23T15:00:29;9.30;;;2.30;;
51949;SDS011;37974;53.218;6.640;2022-11-23T15:03:05;11.32;;;1.92;;
51949;SDS011;37974;53.218;6.640;2022-11-23T15:05:34;11.65;;;2.03;;
51949;SDS011;37974;53.218;6.640;2022-11-23T15:08:08;9.52;;;1.90;;
51949;SDS011;37974;53.218;6.640;2022-11-23T15:10:44;14.93;;;2.30;;
51949;SDS011;37974;53.218;6.640;2022-11-23T15:13:15;11.80;;;2.10;;
51949;SDS011;37974;53.218;6.640;2022-11-23T15:15:55;11.93;;;2.35;;
51949;SDS011;37974;53.218;6.640;2022-11-23T15:18:27;13.45;;;2.25;;
51949;SDS011;37974;53.218;6.640;2022-11-23T15:21:32;8.93;;;1.67;;
51949;SDS011;37974;53.218;6.640;2022-11-23T15:23:45;11.32;;;1.80;;
51949;SDS011;37974;53.218;6.640;2022-11-23T15:26:14;9.55;;;1.60;;
51949;SDS011;37974;53.218;6.640;2022-11-23T15:28:45;15.30;;;2.35;;
51949;SDS011;37974;53.218;6.640;2022-11-23T15:31:41;10.07;;;1.70;;
51949;SDS011;37974;53.218;6.640;2022-11-23T15:34:00;12.02;;;2.60;;
51949;SDS011;37974;53.218;6.640;2022-11-23T15:36:29;17.48;;;2.75;;
51949;SDS011;37974;53.218;6.640;2022-11-23T15:38:57;14.90;;;2.50;;
51949;SDS011;37974;53.218;6.640;2022-11-23T15:41:28;14.65;;;1.95;;
51949;SDS011;37974;53.218;6.640;2022-11-23T15:43:58;12.13;;;2.00;;
51949;SDS011;37974;53.218;6.640;2022-11-23T15:46:26;7.60;;;1.77;;
51949;SDS011;37974;53.218;6.640;2022-11-23T15:49:02;15.35;;;3.22;;
51949;SDS011;37974;53.218;6.640;2022-11-23T15:51:38;9.05;;;1.92;;
51949;SDS011;37974;53.218;6.640;2022-11-23T15:54:12;12.10;;;2.63;;
51949;SDS011;37974;53.218;6.640;2022-11-23T15:56:43;12.00;;;1.95;;
51949;SDS011;37974;53.218;6.640;2022-11-23T15:59:19;11.57;;;1.85;;